createdAt,value
2018-03-18T00:01:28.904Z,74.10
2018-03-18T00:03:56.420Z,73.80
2018-03-18T00:06:23.939Z,74.00
2018-03-18T00:08:51.428Z,74.20
2018-03-18T00:11:18.934Z,74.30
2018-03-18T00:13:46.529Z,74.10
2018-03-18T00:16:14.031Z,74.30
2018-03-18T00:18:41.906Z,74.10
2018-03-18T00:21:09.407Z,74.00
2018-03-18T00:23:37.292Z,74.30
2018-03-18T00:26:05.281Z,74.30
2018-03-18T00:28:32.773Z,74.30
2018-03-18T00:31:00.755Z,74.30
2018-03-18T00:33:28.243Z,74.30
2018-03-18T00:35:55.744Z,74.30
2018-03-18T00:38:23.252Z,74.30
2018-03-18T00:40:50.767Z,74.40
2018-03-18T00:43:18.359Z,74.40
2018-03-18T00:45:45.868Z,74.40
2018-03-18T00:48:13.764Z,74.10
2018-03-18T00:50:41.736Z,74.00
2018-03-18T00:53:09.232Z,74.00
2018-03-18T00:55:37.165Z,74.20
2018-03-18T00:58:04.652Z,74.20
2018-03-18T01:00:32.144Z,74.40
2018-03-18T01:02:59.672Z,74.50
2018-03-18T01:05:27.159Z,74.40
2018-03-18T01:07:54.763Z,74.50
2018-03-18T01:10:22.248Z,74.30
2018-03-18T01:12:49.808Z,74.00
2018-03-18T01:15:17.289Z,74.30
2018-03-18T01:17:44.871Z,74.40
2018-03-18T01:20:12.363Z,74.30
2018-03-18T01:22:39.867Z,74.10
2018-03-18T01:25:07.752Z,73.80
2018-03-18T01:27:35.651Z,73.90
2018-03-18T01:30:03.619Z,73.50
2018-03-18T01:32:31.120Z,73.50
2018-03-18T01:34:59.000Z,73.50
2018-03-18T01:37:26.602Z,73.50
2018-03-18T01:39:54.482Z,73.80
2018-03-18T01:42:22.460Z,73.80
2018-03-18T01:44:50.039Z,73.80
2018-03-18T01:47:17.545Z,73.80
2018-03-18T01:49:45.424Z,73.70
2018-03-18T01:52:13.421Z,73.60
2018-03-18T01:54:40.999Z,73.60
2018-03-18T01:57:08.499Z,73.40
2018-03-18T01:59:36.479Z,72.60
2018-03-18T02:02:03.984Z,72.60
2018-03-18T02:04:31.867Z,72.90
2018-03-18T02:06:59.766Z,72.80
2018-03-18T02:09:27.643Z,72.50
2018-03-18T02:11:55.221Z,72.50
2018-03-18T02:14:22.808Z,72.60
2018-03-18T02:16:50.724Z,72.60
2018-03-18T02:19:18.689Z,72.50
2018-03-18T02:21:46.190Z,72.50
2018-03-18T02:24:13.764Z,72.50
2018-03-18T02:26:41.248Z,72.30
2018-03-18T02:29:08.826Z,72.50
2018-03-18T02:31:36.307Z,72.60
2018-03-18T02:34:03.900Z,72.50
2018-03-18T02:36:31.383Z,72.80
2018-03-18T02:38:58.947Z,72.80
2018-03-18T02:41:26.417Z,72.40
2018-03-18T02:43:54.030Z,72.70
2018-03-18T02:46:21.618Z,72.10
2018-03-18T02:48:49.137Z,72.40
2018-03-18T02:51:16.627Z,72.60
2018-03-18T02:53:44.127Z,72.80
2018-03-18T02:56:11.651Z,72.70
2018-03-18T02:58:39.246Z,72.80
2018-03-18T03:01:06.807Z,72.60
2018-03-18T03:03:34.321Z,72.30
2018-03-18T03:06:01.811Z,72.00
2018-03-18T03:08:29.745Z,71.70
2018-03-18T03:10:57.263Z,71.70
2018-03-18T03:13:24.783Z,71.70
2018-03-18T03:15:52.750Z,71.40
2018-03-18T03:18:20.255Z,71.40
2018-03-18T03:20:47.744Z,71.80
2018-03-18T03:23:15.312Z,71.60
2018-03-18T03:25:43.199Z,71.30
2018-03-18T03:28:11.188Z,71.60
2018-03-18T03:30:38.669Z,71.60
2018-03-18T03:33:06.592Z,71.80
2018-03-18T03:35:34.143Z,71.80
2018-03-18T03:38:01.727Z,71.20
2018-03-18T03:40:29.214Z,71.60
2018-03-18T03:42:56.716Z,71.80
2018-03-18T03:45:24.603Z,71.30
2018-03-18T03:47:52.511Z,71.20
2018-03-18T03:50:20.011Z,71.20
2018-03-18T03:52:47.504Z,71.70
2018-03-18T03:55:15.011Z,71.60
2018-03-18T03:57:42.506Z,71.30
2018-03-18T04:00:10.018Z,71.10
2018-03-18T04:02:37.980Z,71.20
2018-03-18T04:05:05.571Z,71.20
2018-03-18T04:07:33.058Z,71.00
2018-03-18T04:10:00.635Z,70.60
2018-03-18T04:12:28.119Z,70.80
2018-03-18T04:14:55.627Z,70.70
2018-03-18T04:17:23.502Z,70.90
2018-03-18T04:19:51.084Z,70.90
2018-03-18T04:22:18.571Z,71.30
2018-03-18T04:24:46.080Z,70.50
2018-03-18T04:27:13.955Z,70.90
2018-03-18T04:29:41.850Z,70.60
2018-03-18T04:32:09.722Z,70.40
2018-03-18T04:34:37.219Z,70.40
2018-03-18T04:37:04.707Z,70.30
2018-03-18T04:39:32.615Z,70.90
2018-03-18T04:42:00.495Z,71.20
2018-03-18T04:44:28.395Z,71.10
2018-03-18T04:46:56.359Z,70.80
2018-03-18T04:49:23.863Z,70.80
2018-03-18T04:51:51.412Z,70.80
2018-03-18T04:54:19.016Z,71.10
2018-03-18T04:56:46.499Z,72.20
2018-03-18T04:59:14.014Z,72.00
2018-03-18T05:01:41.896Z,73.90
2018-03-18T05:04:09.803Z,74.60
2018-03-18T05:06:37.288Z,74.60
2018-03-18T05:09:05.555Z,73.50
2018-03-18T05:11:33.056Z,72.80
2018-03-18T05:14:01.032Z,72.80
2018-03-18T05:16:28.612Z,72.70
2018-03-18T05:18:56.095Z,73.10
2018-03-18T05:21:23.591Z,72.60
2018-03-18T05:23:51.079Z,72.10
2018-03-18T05:26:19.068Z,72.70
2018-03-18T05:28:46.551Z,72.70
2018-03-18T05:31:14.151Z,73.10
2018-03-18T05:33:42.031Z,73.50
2018-03-18T05:36:09.540Z,73.50
2018-03-18T05:38:37.027Z,73.30
2018-03-18T05:41:04.536Z,73.40
2018-03-18T05:43:32.023Z,73.50
2018-03-18T05:45:59.519Z,73.70
2018-03-18T05:48:27.019Z,74.20
2018-03-18T05:50:54.528Z,74.10
2018-03-18T05:53:22.411Z,74.80
2018-03-18T05:55:49.944Z,74.80
2018-03-18T05:58:17.431Z,75.10
2018-03-18T06:00:44.947Z,75.90
2018-03-18T06:03:12.527Z,76.20
2018-03-18T06:05:40.107Z,76.10
2018-03-18T06:08:07.600Z,76.40
2018-03-18T06:10:35.104Z,76.40
2018-03-18T06:13:02.988Z,76.80
2018-03-18T06:15:30.884Z,76.90
2018-03-18T06:17:58.883Z,76.70
2018-03-18T06:20:26.369Z,76.70
2018-03-18T06:22:54.252Z,77.10
2018-03-18T06:25:22.169Z,77.10
2018-03-18T06:27:49.656Z,77.10
2018-03-18T06:30:17.159Z,76.40
2018-03-18T06:32:44.658Z,76.20
2018-03-18T06:35:12.171Z,76.00
2018-03-18T06:37:39.650Z,75.40
2018-03-18T06:40:07.549Z,75.70
2018-03-18T06:42:35.514Z,76.00
2018-03-18T06:45:03.003Z,76.10
2018-03-18T06:47:30.508Z,76.00
2018-03-18T06:49:58.391Z,75.30
2018-03-18T06:52:25.963Z,75.30
2018-03-18T06:54:53.492Z,75.50
2018-03-18T06:57:21.240Z,75.60
2018-03-18T06:59:48.775Z,74.80
2018-03-18T07:02:16.275Z,75.20
2018-03-18T07:04:43.772Z,75.20
2018-03-18T07:07:11.275Z,75.40
2018-03-18T07:09:38.755Z,75.60
2018-03-18T07:12:07.259Z,75.30
2018-03-18T07:14:34.743Z,74.80
2018-03-18T07:17:02.357Z,74.80
2018-03-18T07:19:30.324Z,75.10
2018-03-18T07:21:57.843Z,75.10
2018-03-18T07:24:25.714Z,74.90
2018-03-18T07:26:53.234Z,74.90
2018-03-18T07:29:20.723Z,74.90
2018-03-18T07:31:48.227Z,75.20
2018-03-18T07:34:15.755Z,75.00
2018-03-18T07:36:43.662Z,76.00
2018-03-18T07:39:11.150Z,76.00
2018-03-18T07:41:38.662Z,74.90
2018-03-18T07:44:06.147Z,75.40
2018-03-18T07:46:33.652Z,71.20
2018-03-18T07:49:01.141Z,71.60
2018-03-18T07:51:28.723Z,73.00
2018-03-18T07:53:56.207Z,73.90
2018-03-18T07:56:23.715Z,74.60
2018-03-18T07:58:51.600Z,75.50
2018-03-18T08:01:19.096Z,75.50
2018-03-18T08:03:46.576Z,75.60
2018-03-18T08:06:14.544Z,75.00
2018-03-18T08:08:42.027Z,75.00
2018-03-18T08:11:09.515Z,74.80
2018-03-18T08:13:37.011Z,74.20
2018-03-18T08:16:04.883Z,73.60
2018-03-18T08:18:32.383Z,73.60
2018-03-18T08:21:00.263Z,72.80
2018-03-18T08:23:27.795Z,72.80
2018-03-18T08:25:55.283Z,70.90
2018-03-18T08:28:22.803Z,70.50
2018-03-18T08:30:50.288Z,69.80
2018-03-18T08:33:17.794Z,69.60
2018-03-18T08:35:45.371Z,69.20
2018-03-18T08:38:12.876Z,68.70
2018-03-18T08:40:40.755Z,68.80
2018-03-18T08:43:08.647Z,68.90
2018-03-18T08:45:36.720Z,68.50
2018-03-18T08:48:04.308Z,68.50
2018-03-18T08:50:31.792Z,68.60
2018-03-18T08:52:59.295Z,68.40
2018-03-18T08:55:27.272Z,67.10
2018-03-18T08:57:54.797Z,67.10
2018-03-18T09:00:22.275Z,66.90
2018-03-18T09:02:50.336Z,67.90
2018-03-18T09:05:18.229Z,68.00
2018-03-18T09:07:45.812Z,68.10
2018-03-18T09:10:13.356Z,67.30
2018-03-18T09:12:40.851Z,67.10
2018-03-18T09:15:08.343Z,67.00
2018-03-18T09:17:35.857Z,65.60
2018-03-18T09:20:03.343Z,66.30
2018-03-18T09:22:30.863Z,65.10
2018-03-18T09:24:58.392Z,65.10
2018-03-18T09:27:25.982Z,64.90
2018-03-18T09:29:53.564Z,65.20
2018-03-18T09:32:21.764Z,65.80
2018-03-18T09:34:49.263Z,65.30
2018-03-18T09:37:17.144Z,65.30
2018-03-18T09:39:44.685Z,65.30
2018-03-18T09:42:12.213Z,65.10
2018-03-18T09:44:39.717Z,65.00
2018-03-18T09:47:07.708Z,65.80
2018-03-18T09:49:35.608Z,66.30
2018-03-18T09:52:03.483Z,66.20
2018-03-18T09:54:31.052Z,66.10
2018-03-18T09:56:58.644Z,65.80
2018-03-18T09:59:26.143Z,65.80
2018-03-18T10:01:54.119Z,65.40
2018-03-18T10:04:21.684Z,65.40
2018-03-18T10:06:49.172Z,65.80
2018-03-18T10:09:16.673Z,65.90
2018-03-18T10:11:44.154Z,65.40
2018-03-18T10:14:11.651Z,64.80
2018-03-18T10:16:39.570Z,65.00
2018-03-18T10:19:07.047Z,65.00
2018-03-18T10:21:34.533Z,65.60
2018-03-18T10:24:02.035Z,65.40
2018-03-18T10:26:29.524Z,64.60
2018-03-18T10:28:57.024Z,65.20
2018-03-18T10:31:24.500Z,65.00
2018-03-18T10:33:51.997Z,65.20
2018-03-18T10:36:19.487Z,64.50
2018-03-18T10:38:46.988Z,64.60
2018-03-18T10:41:14.466Z,64.80
2018-03-18T10:43:41.963Z,64.70
2018-03-18T10:46:09.941Z,65.00
2018-03-18T10:48:37.439Z,65.00
2018-03-18T10:51:05.323Z,64.90
2018-03-18T10:53:32.952Z,64.90
2018-03-18T10:56:00.800Z,64.80
2018-03-18T10:58:28.288Z,64.80
2018-03-18T11:00:55.807Z,65.40
2018-03-18T11:03:23.294Z,64.60
2018-03-18T11:05:50.823Z,64.00
2018-03-18T11:08:18.379Z,64.60
2018-03-18T11:10:45.876Z,64.60
2018-03-18T11:13:13.423Z,64.00
2018-03-18T11:15:40.951Z,62.00
2018-03-18T11:18:08.531Z,63.10
2018-03-18T11:20:36.027Z,62.90
2018-03-18T11:23:03.508Z,62.70
2018-03-18T11:25:31.019Z,61.80
2018-03-18T11:27:58.987Z,61.00
2018-03-18T11:30:26.569Z,61.00
2018-03-18T11:32:54.052Z,61.00
2018-03-18T11:35:21.551Z,61.20
2018-03-18T11:37:49.036Z,60.90
2018-03-18T11:40:16.927Z,61.80
2018-03-18T11:42:44.808Z,61.20
2018-03-18T11:45:12.303Z,61.20
2018-03-18T11:47:40.210Z,61.10
2018-03-18T11:50:08.176Z,60.70
2018-03-18T11:52:35.651Z,60.70
2018-03-18T11:55:03.151Z,60.00
2018-03-18T11:57:30.628Z,60.50
2018-03-18T11:59:58.125Z,60.10
2018-03-18T12:02:26.002Z,60.20
2018-03-18T12:04:53.607Z,60.20
2018-03-18T12:07:23.055Z,61.00
2018-03-18T12:09:50.551Z,59.90
2018-03-18T12:12:18.023Z,60.60
2018-03-18T12:14:45.555Z,60.40
2018-03-18T12:17:13.032Z,60.00
2018-03-18T12:19:40.623Z,59.90
2018-03-18T12:22:08.100Z,59.70
2018-03-18T12:24:35.600Z,59.30
2018-03-18T12:27:03.086Z,60.10
2018-03-18T12:29:30.560Z,59.80
2018-03-18T12:31:58.135Z,59.90
2018-03-18T12:34:25.615Z,60.60
2018-03-18T12:36:53.199Z,59.40
2018-03-18T12:39:20.671Z,58.80
2018-03-18T12:41:48.158Z,59.60
2018-03-18T12:44:15.651Z,59.40
2018-03-18T12:46:43.148Z,59.20
2018-03-18T12:49:10.618Z,60.20
2018-03-18T12:51:38.188Z,59.80
2018-03-18T12:54:05.660Z,60.20
2018-03-18T12:56:33.159Z,59.50
2018-03-18T12:59:01.031Z,59.70
2018-03-18T13:01:28.519Z,59.70
2018-03-18T13:03:55.999Z,60.00
2018-03-18T13:06:23.590Z,59.50
2018-03-18T13:08:51.080Z,58.90
2018-03-18T13:11:18.578Z,58.60
2018-03-18T13:13:46.139Z,59.20
2018-03-18T13:16:13.639Z,59.80
2018-03-18T13:18:41.107Z,59.30
2018-03-18T13:21:08.607Z,58.80
2018-03-18T13:23:36.179Z,58.30
2018-03-18T13:26:03.674Z,70.00
2018-03-18T13:28:31.275Z,57.80
2018-03-18T13:30:59.206Z,56.60
2018-03-18T13:33:26.674Z,56.60
2018-03-18T13:35:54.199Z,57.80
2018-03-18T13:38:21.691Z,57.80
2018-03-18T13:40:49.172Z,58.10
2018-03-18T13:43:16.756Z,58.10
2018-03-18T13:45:44.235Z,57.90
2018-03-18T13:48:11.819Z,57.80
2018-03-18T13:50:39.306Z,58.30
2018-03-18T13:53:06.884Z,57.80
2018-03-18T13:55:34.355Z,57.40
2018-03-18T13:58:01.883Z,58.30
2018-03-18T14:00:29.842Z,57.60
2018-03-18T14:02:57.334Z,57.70
2018-03-18T14:05:24.806Z,57.40
2018-03-18T14:07:52.300Z,57.60
2018-03-18T14:10:19.783Z,57.40
2018-03-18T14:12:47.271Z,58.20
2018-03-18T14:15:14.751Z,58.20
2018-03-18T14:17:42.237Z,58.10
2018-03-18T14:20:09.741Z,57.50
2018-03-18T14:22:37.212Z,57.70
2018-03-18T14:25:04.687Z,57.20
2018-03-18T14:27:32.260Z,56.30
2018-03-18T14:29:59.852Z,56.30
2018-03-18T14:32:27.431Z,56.90
2018-03-18T14:34:54.908Z,57.60
2018-03-18T14:37:22.427Z,57.10
2018-03-18T14:39:49.882Z,56.60
2018-03-18T14:42:17.497Z,57.10
2018-03-18T14:44:45.464Z,56.80
2018-03-18T14:47:14.228Z,56.80
2018-03-18T14:49:41.698Z,57.10
2018-03-18T14:52:09.203Z,57.00
2018-03-18T14:54:36.679Z,56.80
2018-03-18T14:57:04.175Z,57.30
2018-03-18T14:59:32.956Z,57.40
2018-03-18T15:02:00.511Z,57.90
2018-03-18T15:04:27.987Z,58.10
2018-03-18T15:06:55.466Z,57.20
2018-03-18T15:09:23.043Z,57.40
2018-03-18T15:11:50.510Z,58.20
2018-03-18T15:14:18.007Z,58.00
2018-03-18T15:16:45.487Z,58.10
2018-03-18T15:19:12.976Z,57.90
2018-03-18T15:21:40.446Z,58.20
2018-03-18T15:24:07.943Z,57.70
2018-03-18T15:26:35.516Z,57.30
2018-03-18T15:29:03.030Z,57.00
2018-03-18T15:31:30.603Z,57.60
2018-03-18T15:33:58.087Z,57.30
2018-03-18T15:36:25.584Z,57.70
2018-03-18T15:38:53.071Z,57.60
2018-03-18T15:41:20.583Z,57.40
2018-03-18T15:43:48.067Z,57.40
2018-03-18T15:46:15.558Z,57.40
2018-03-18T15:48:43.055Z,58.40
2018-03-18T15:51:10.523Z,58.00
2018-03-18T15:53:38.143Z,63.60
2018-03-18T15:56:06.006Z,57.40
2018-03-18T15:58:33.499Z,57.50
2018-03-18T16:01:01.074Z,57.30
2018-03-18T16:03:28.591Z,56.40
2018-03-18T16:05:56.062Z,57.60
2018-03-18T16:08:23.651Z,57.60
2018-03-18T16:10:51.184Z,56.90
2018-03-18T16:13:19.172Z,57.50
2018-03-18T16:15:46.628Z,57.50
2018-03-18T16:18:14.981Z,57.60
2018-03-18T16:20:42.450Z,57.70
2018-03-18T16:23:09.943Z,57.80
2018-03-18T16:25:37.458Z,57.40
2018-03-18T16:28:05.033Z,57.40
2018-03-18T16:30:44.262Z,57.50
2018-03-18T16:33:11.799Z,57.60
2018-03-18T16:35:39.367Z,58.30
2018-03-18T16:38:06.843Z,57.90
2018-03-18T16:40:35.030Z,58.10
2018-03-18T16:43:02.516Z,58.30
2018-03-18T16:45:30.011Z,58.30
2018-03-18T16:47:57.497Z,58.40
2018-03-18T16:50:25.008Z,58.20
2018-03-18T16:52:52.504Z,58.20
2018-03-18T16:55:20.395Z,58.60
2018-03-18T16:57:47.948Z,58.60
2018-03-18T17:00:15.486Z,58.50
2018-03-18T17:02:42.967Z,58.90
2018-03-18T17:08:13.833Z,59.40
2018-03-18T17:10:41.386Z,59.00
2018-03-18T17:13:08.908Z,58.80
2018-03-18T17:15:36.915Z,59.40
2018-03-18T17:18:04.474Z,59.40
2018-03-18T17:20:32.159Z,59.20
2018-03-18T17:22:59.702Z,59.20
2018-03-18T17:25:27.274Z,59.50
2018-03-18T17:27:54.794Z,59.00
2018-03-18T17:30:22.314Z,58.80
2018-03-18T17:32:49.815Z,59.30
2018-03-18T17:35:17.470Z,58.60
2018-03-18T17:37:44.989Z,58.30
2018-03-18T17:40:12.510Z,58.20
2018-03-18T17:42:40.019Z,58.40
2018-03-18T17:45:19.957Z,59.10
2018-03-18T17:47:59.244Z,59.10
2018-03-18T17:50:38.671Z,58.50
2018-03-18T17:53:17.914Z,58.30
2018-03-18T17:55:45.462Z,58.50
2018-03-18T17:58:12.980Z,59.10
2018-03-18T18:00:40.512Z,59.10
2018-03-18T18:03:08.011Z,58.40
2018-03-18T18:05:35.948Z,58.40
2018-03-18T18:08:03.478Z,58.40
2018-03-18T18:10:30.992Z,57.80
2018-03-18T18:12:58.897Z,57.80
2018-03-18T18:15:26.429Z,57.80
2018-03-18T18:17:54.442Z,57.40
2018-03-18T18:20:21.987Z,57.40
2018-03-18T18:22:49.485Z,57.10
2018-03-18T18:25:17.026Z,57.30
2018-03-18T18:27:44.536Z,56.80
2018-03-18T18:30:12.087Z,56.80
2018-03-18T18:32:39.622Z,57.00
2018-03-18T18:35:07.122Z,56.80
2018-03-18T18:37:34.650Z,57.40
2018-03-18T18:40:02.550Z,57.10
2018-03-18T18:42:30.060Z,57.10
2018-03-18T18:44:57.571Z,57.10
2018-03-18T18:47:25.092Z,57.50
2018-03-18T18:58:32.388Z,57.60
2018-03-18T19:01:00.017Z,57.60
2018-03-18T19:03:27.569Z,57.30
2018-03-18T19:05:55.267Z,57.20
2018-03-18T19:08:22.780Z,57.80
2018-03-18T19:10:51.005Z,57.60
2018-03-18T19:13:18.743Z,57.60
2018-03-18T19:15:46.395Z,57.70
2018-03-18T19:18:13.892Z,57.70
2018-03-18T19:20:41.405Z,57.50
2018-03-18T19:23:08.999Z,57.90
2018-03-18T19:25:36.599Z,56.80
2018-03-18T19:28:04.113Z,56.70
2018-03-18T19:30:31.790Z,56.90
2018-03-18T19:32:59.701Z,55.50
2018-03-18T19:35:27.183Z,55.50
2018-03-18T19:37:54.691Z,55.40
2018-03-18T19:40:22.177Z,55.40
2018-03-18T19:42:49.695Z,55.40
2018-03-18T19:45:17.173Z,55.10
2018-03-18T19:47:44.760Z,55.10
2018-03-18T19:50:12.375Z,55.50
2018-03-18T19:52:39.890Z,55.00
2018-03-18T19:55:07.439Z,54.80
2018-03-18T19:57:35.371Z,55.10
2018-03-18T20:03:01.263Z,55.50
2018-03-18T20:05:28.740Z,55.40
2018-03-18T20:07:56.239Z,55.40
2018-03-18T20:10:23.723Z,56.00
2018-03-18T20:12:51.228Z,55.10
2018-03-18T20:15:18.739Z,55.30
2018-03-18T20:17:46.240Z,55.00
2018-03-18T20:20:13.716Z,54.90
2018-03-18T20:22:41.221Z,55.10
2018-03-18T20:25:08.740Z,54.90
2018-03-18T20:27:36.235Z,54.20
2018-03-18T20:30:04.207Z,54.70
2018-03-18T20:32:31.725Z,54.70
2018-03-18T20:36:58.068Z,53.70
2018-03-18T20:39:25.543Z,54.30
2018-03-18T20:41:53.103Z,53.60
2018-03-18T20:44:20.976Z,53.90
2018-03-18T20:46:48.469Z,53.90
2018-03-18T20:49:16.039Z,53.10
2018-03-18T20:51:43.540Z,53.50
2018-03-18T20:54:11.039Z,52.70
2018-03-18T20:56:38.517Z,53.00
2018-03-18T20:59:06.011Z,53.20
2018-03-18T21:01:33.975Z,52.60
2018-03-18T21:04:01.499Z,52.50
2018-03-18T21:06:29.375Z,53.50
2018-03-18T21:08:56.943Z,53.50
2018-03-18T21:11:24.424Z,53.10
2018-03-18T21:13:51.919Z,52.70
2018-03-18T21:16:19.395Z,52.40
2018-03-18T21:18:46.890Z,52.70
2018-03-18T21:21:14.453Z,52.60
2018-03-18T21:23:41.947Z,52.80
2018-03-18T21:26:11.943Z,52.30
2018-03-18T21:28:39.456Z,52.40
2018-03-18T21:31:06.935Z,52.80
2018-03-18T21:33:34.434Z,53.20
2018-03-18T21:36:01.915Z,52.90
2018-03-18T21:38:30.348Z,52.70
2018-03-18T21:40:57.959Z,52.20
2018-03-18T21:43:25.851Z,52.10
2018-03-18T21:45:53.337Z,52.10
2018-03-18T21:48:20.844Z,52.30
2018-03-18T21:50:48.915Z,52.30
2018-03-18T21:53:16.504Z,52.30
2018-03-18T21:55:43.988Z,52.00
2018-03-18T21:58:11.586Z,52.50
2018-03-18T22:00:39.060Z,52.30
2018-03-18T22:03:06.554Z,52.30
2018-03-18T22:05:34.027Z,52.60
2018-03-18T22:08:01.524Z,52.50
2018-03-18T22:10:29.020Z,52.80
2018-03-18T22:12:56.589Z,52.70
2018-03-18T22:15:24.087Z,53.10
2018-03-18T22:17:51.567Z,53.40
2018-03-18T22:20:19.064Z,53.10
2018-03-18T22:22:47.022Z,53.20
2018-03-18T22:25:14.530Z,53.20
2018-03-18T22:27:42.099Z,53.00
2018-03-18T22:30:09.591Z,53.20
2018-03-18T22:32:37.075Z,53.10
2018-03-18T22:35:04.571Z,53.00
2018-03-18T22:37:32.448Z,52.90
2018-03-18T22:40:00.033Z,52.70
2018-03-18T22:42:27.619Z,53.30
2018-03-18T22:44:55.120Z,53.00
2018-03-18T22:47:23.000Z,53.60
2018-03-18T22:49:50.487Z,53.60
2018-03-18T22:52:17.963Z,53.60
2018-03-18T22:54:45.459Z,53.20
2018-03-18T22:57:13.036Z,53.60
2018-03-18T22:59:40.531Z,53.50
2018-03-18T23:02:08.003Z,53.40
2018-03-18T23:04:35.595Z,53.80
2018-03-18T23:07:03.072Z,53.60
2018-03-18T23:09:30.576Z,53.70
2018-03-18T23:11:58.160Z,53.80
2018-03-18T23:14:25.667Z,53.90
2018-03-18T23:16:53.135Z,53.70
2018-03-18T23:19:20.636Z,53.80
2018-03-18T23:21:48.214Z,54.10
2018-03-18T23:24:15.713Z,53.60
2018-03-18T23:26:43.200Z,53.80
2018-03-18T23:29:10.700Z,53.80
2018-03-18T23:31:38.175Z,53.80
2018-03-18T23:34:05.659Z,54.00
2018-03-18T23:36:33.155Z,54.50
2018-03-18T23:39:00.652Z,54.60
2018-03-18T23:41:28.151Z,54.70
2018-03-18T23:43:55.719Z,54.30
2018-03-18T23:46:23.307Z,55.00
2018-03-18T23:48:50.783Z,55.20
2018-03-18T23:51:18.379Z,54.90
2018-03-18T23:53:46.363Z,55.10
2018-03-18T23:56:14.086Z,55.10
2018-03-18T23:58:41.959Z,55.70
